Time;durP1;ratioP1;P1;durP2;ratioP2;P2;SDS_P1;SDS_P2;PMS_P1;PMS_P2;Temp;Humidity;BMP_temperature;BMP_pressure;BME280_temperature;BME280_humidity;BME280_pressure;Samples;Min_cycle;Max_cycle;Signal;HPM_P1;HPM_P2
2022/12/08 00:09:20;;;;;;;17.47;13.23;;;4.90;99.90;;;;;;10426684;28;20249;-74
2022/12/08 00:09:58;;;;;;;20.67;13.50;;;4.90;99.90;;;;;;10433419;28;20211;-73
2022/12/08 00:14:58;;;;;;;16.80;13.47;;;4.90;99.90;;;;;;10443684;28;20213;-73
2022/12/08 00:19:59;;;;;;;18.13;12.80;;;4.90;99.90;;;;;;10438984;28;20224;-73
2022/12/08 00:24:59;;;;;;;18.80;13.67;;;4.90;99.90;;;;;;10439163;28;20212;-72
2022/12/08 00:30:00;;;;;;;18.63;13.00;;;4.90;99.90;;;;;;10435660;28;20220;-73
2022/12/08 00:35:00;;;;;;;21.63;14.63;;;4.80;99.90;;;;;;10426062;28;20235;-72
2022/12/08 00:40:01;;;;;;;16.77;13.13;;;4.80;99.90;;;;;;10435238;28;20259;-71
2022/12/08 00:45:02;;;;;;;18.10;13.83;;;4.70;99.90;;;;;;10439589;28;20216;-73
2022/12/08 00:50:03;;;;;;;18.20;13.47;;;4.70;99.90;;;;;;10432816;28;20284;-72
2022/12/08 00:55:04;;;;;;;17.93;13.27;;;4.70;99.90;;;;;;10428787;28;20600;-73
2022/12/08 01:00:05;;;;;;;17.30;13.30;;;4.70;99.90;;;;;;10460916;28;20270;-74
2022/12/08 01:05:06;;;;;;;20.43;13.50;;;4.70;99.90;;;;;;10435635;28;20191;-73
2022/12/08 01:10:07;;;;;;;17.93;13.60;;;4.70;99.90;;;;;;10433208;28;20223;-72
2022/12/08 01:15:08;;;;;;;18.90;12.97;;;4.80;99.90;;;;;;10431588;28;20196;-73
2022/12/08 01:20:09;;;;;;;19.87;14.37;;;4.70;99.90;;;;;;10438418;28;20215;-71
2022/12/08 01:25:09;;;;;;;19.17;13.43;;;4.70;99.90;;;;;;10436042;28;20257;-71
2022/12/08 01:30:12;;;;;;;19.17;13.63;;;4.70;99.90;;;;;;10442182;28;20187;-71
2022/12/08 01:35:13;;;;;;;17.90;13.40;;;4.70;99.90;;;;;;10434363;28;20181;-73
2022/12/08 01:40:13;;;;;;;17.60;12.57;;;4.70;99.90;;;;;;10425360;28;20212;-73
2022/12/08 01:45:23;;;;;;;18.53;12.87;;;4.80;99.90;;;;;;10434493;28;20279;-74
2022/12/08 01:50:26;;;;;;;18.50;13.33;;;4.70;99.90;;;;;;10431603;28;20192;-73
2022/12/08 01:55:58;;;;;;;18.50;12.77;;;4.70;99.90;;;;;;10425523;28;20228;-73
2022/12/08 02:00:59;;;;;;;17.00;12.23;;;4.70;99.90;;;;;;10431237;28;20830;-73
2022/12/08 02:06:01;;;;;;;15.37;11.47;;;4.70;99.90;;;;;;10418976;28;20319;-72
2022/12/08 02:11:04;;;;;;;18.23;12.80;;;4.60;99.90;;;;;;10438158;28;20247;-72
2022/12/08 02:16:19;;;;;;;21.37;13.27;;;4.70;99.90;;;;;;10423672;28;20255;-72
2022/12/08 02:21:59;;;;;;;19.43;12.40;;;4.60;99.90;;;;;;10438829;28;20258;-72
2022/12/08 02:27:24;;;;;;;18.63;12.33;;;4.60;99.90;;;;;;10408984;28;20208;-72
2022/12/08 02:32:42;;;;;;;17.40;13.40;;;4.60;99.90;;;;;;10467582;28;20223;-73
2022/12/08 02:37:49;;;;;;;18.23;12.10;;;4.70;99.90;;;;;;10443137;28;20231;-72
2022/12/08 02:42:59;;;;;;;17.37;13.07;;;4.60;99.90;;;;;;10435004;28;20256;-72
2022/12/08 02:48:00;;;;;;;15.70;12.37;;;4.60;99.90;;;;;;10439971;28;20248;-72
2022/12/08 02:53:01;;;;;;;18.63;12.77;;;4.60;99.90;;;;;;10438125;28;20215;-72
2022/12/08 02:58:17;;;;;;;20.23;13.07;;;4.60;99.90;;;;;;10434680;28;20781;-72
2022/12/08 03:03:47;;;;;;;21.50;13.33;;;4.60;99.90;;;;;;10432798;28;20223;-72
2022/12/08 03:09:04;;;;;;;18.10;12.93;;;4.50;99.90;;;;;;10448430;28;20257;-72
2022/12/08 03:14:07;;;;;;;17.80;12.87;;;4.50;99.90;;;;;;10433403;28;20590;-73
2022/12/08 03:19:12;;;;;;;18.83;12.43;;;4.50;99.90;;;;;;10444016;28;20681;-72
2022/12/08 03:24:16;;;;;;;18.20;12.10;;;4.50;99.90;;;;;;10432258;28;20757;-71
2022/12/08 03:29:17;;;;;;;16.43;12.17;;;4.50;99.90;;;;;;10453361;28;20215;-72
2022/12/08 03:34:18;;;;;;;18.17;12.90;;;4.40;99.90;;;;;;10422517;28;20220;-71
2022/12/08 03:39:19;;;;;;;18.03;12.60;;;4.50;99.90;;;;;;10433343;28;20228;-71
2022/12/08 03:44:19;;;;;;;16.43;12.50;;;4.40;99.90;;;;;;10435883;28;20695;-72
2022/12/08 03:49:23;;;;;;;17.87;12.77;;;4.40;99.90;;;;;;10431691;28;20235;-73
2022/12/08 03:54:24;;;;;;;18.77;12.93;;;4.40;99.90;;;;;;10428680;28;20263;-73
2022/12/08 03:59:24;;;;;;;18.67;12.97;;;4.40;99.90;;;;;;10435305;28;20257;-73
2022/12/08 04:04:25;;;;;;;17.40;11.83;;;4.40;99.90;;;;;;10438197;28;20727;-73
2022/12/08 04:09:25;;;;;;;15.67;12.07;;;4.40;99.90;;;;;;10439241;28;20353;-73
2022/12/08 04:14:26;;;;;;;17.33;12.33;;;4.40;99.90;;;;;;10448856;28;20227;-72
2022/12/08 04:19:26;;;;;;;16.70;12.33;;;4.30;99.90;;;;;;10430183;28;20253;-70
2022/12/08 04:24:27;;;;;;;16.90;12.07;;;4.30;99.90;;;;;;10428891;28;20751;-72
2022/12/08 04:29:28;;;;;;;15.23;11.50;;;4.40;99.90;;;;;;10427632;28;20343;-72
2022/12/08 04:34:28;;;;;;;17.63;12.07;;;4.30;99.90;;;;;;10434475;28;20285;-71
2022/12/08 04:39:29;;;;;;;20.20;12.97;;;4.30;99.90;;;;;;10434552;28;20606;-72
2022/12/08 04:44:29;;;;;;;16.93;11.87;;;4.30;99.90;;;;;;10461414;28;20231;-72
2022/12/08 04:49:30;;;;;;;15.77;11.60;;;4.40;99.90;;;;;;10433627;28;20219;-71
2022/12/08 04:54:30;;;;;;;16.47;11.70;;;4.40;99.90;;;;;;10428375;28;20229;-71
2022/12/08 04:59:31;;;;;;;16.73;12.07;;;4.40;99.90;;;;;;10433960;28;20268;-72
2022/12/08 05:04:32;;;;;;;16.27;11.40;;;4.40;99.90;;;;;;10432545;28;20253;-72
2022/12/08 05:09:33;;;;;;;16.00;12.13;;;4.40;99.90;;;;;;10430924;28;20213;-71
2022/12/08 05:14:33;;;;;;;17.10;11.30;;;4.30;99.90;;;;;;10435585;28;20687;-74
2022/12/08 05:19:34;;;;;;;20.30;13.00;;;4.30;99.90;;;;;;10425437;28;20589;-71
2022/12/08 05:24:35;;;;;;;16.43;12.60;;;4.30;99.90;;;;;;10421367;28;20216;-72
2022/12/08 05:29:35;;;;;;;17.70;12.70;;;4.40;99.90;;;;;;10439677;28;20342;-74
2022/12/08 05:34:36;;;;;;;15.13;11.03;;;4.40;99.90;;;;;;10431434;28;20611;-74
2022/12/08 05:39:36;;;;;;;17.17;11.97;;;4.30;99.90;;;;;;10440711;28;20248;-75
2022/12/08 05:44:37;;;;;;;19.43;13.60;;;4.20;99.90;;;;;;10443251;28;20746;-75
2022/12/08 05:49:38;;;;;;;19.53;12.87;;;4.20;99.90;;;;;;10438107;28;20650;-74
2022/12/08 05:54:39;;;;;;;19.70;12.30;;;4.10;99.90;;;;;;10443915;28;20219;-72
2022/12/08 05:59:40;;;;;;;18.97;13.07;;;4.10;99.90;;;;;;10448429;28;21803;-74
2022/12/08 06:04:40;;;;;;;21.07;13.00;;;4.10;99.90;;;;;;10454539;28;20245;-75
2022/12/08 06:09:41;;;;;;;17.43;12.63;;;4.00;99.90;;;;;;10459509;28;20310;-75
2022/12/08 06:14:42;;;;;;;19.43;13.57;;;4.00;99.90;;;;;;10460225;28;20774;-74
2022/12/08 06:19:42;;;;;;;17.53;12.57;;;4.00;99.90;;;;;;10447058;28;20231;-75
2022/12/08 06:24:43;;;;;;;21.07;12.93;;;4.00;99.90;;;;;;10453728;28;20702;-74
2022/12/08 06:29:43;;;;;;;17.93;13.00;;;3.90;99.90;;;;;;10456917;28;20219;-75
2022/12/08 06:34:44;;;;;;;17.40;12.70;;;3.90;99.90;;;;;;10447005;28;20588;-69
2022/12/08 06:39:45;;;;;;;18.53;12.87;;;3.90;99.90;;;;;;10434696;28;20211;-70
2022/12/08 06:44:45;;;;;;;18.27;13.03;;;3.90;99.90;;;;;;10448276;28;20221;-68
2022/12/08 06:49:47;;;;;;;18.80;11.90;;;4.00;99.90;;;;;;10441357;28;20738;-68
2022/12/08 06:54:48;;;;;;;18.53;13.03;;;3.90;99.90;;;;;;10442029;28;20220;-69
2022/12/08 06:59:48;;;;;;;19.63;12.17;;;3.90;99.90;;;;;;10446068;28;20228;-70
2022/12/08 07:04:50;;;;;;;16.67;12.40;;;3.90;99.90;;;;;;10439507;28;20256;-68
2022/12/08 07:09:51;;;;;;;19.30;12.43;;;3.90;99.90;;;;;;10454029;28;20729;-68
2022/12/08 07:14:55;;;;;;;19.67;12.20;;;3.80;99.90;;;;;;10435072;28;20228;-73
2022/12/08 07:19:56;;;;;;;19.00;12.00;;;3.80;99.90;;;;;;10452409;28;20687;-72
2022/12/08 07:24:56;;;;;;;20.83;12.63;;;3.80;99.90;;;;;;10442497;28;20227;-72
2022/12/08 07:29:57;;;;;;;17.17;12.53;;;3.80;99.90;;;;;;10437991;28;20228;-73
2022/12/08 07:34:57;;;;;;;17.30;12.27;;;3.80;99.90;;;;;;10438585;28;20224;-73
2022/12/08 07:39:58;;;;;;;17.13;11.33;;;3.90;99.90;;;;;;10431621;28;20282;-72
2022/12/08 07:44:59;;;;;;;18.93;10.87;;;3.90;99.90;;;;;;10432351;28;20244;-73
2022/12/08 07:50:00;;;;;;;16.07;11.23;;;3.90;99.90;;;;;;10434372;28;20224;-73
2022/12/08 07:55:00;;;;;;;15.67;11.43;;;4.00;99.90;;;;;;10430363;28;20228;-72
2022/12/08 08:00:02;;;;;;;16.20;11.13;;;4.00;99.90;;;;;;10433305;28;20266;-72
2022/12/08 08:05:03;;;;;;;17.03;11.33;;;4.00;99.90;;;;;;10437514;28;20246;-73
2022/12/08 08:10:05;;;;;;;17.57;11.30;;;4.10;99.90;;;;;;10430647;28;20224;-74
2022/12/08 08:15:07;;;;;;;15.00;10.90;;;4.20;99.90;;;;;;10433164;28;20235;-73
2022/12/08 08:20:08;;;;;;;14.40;10.47;;;4.30;99.90;;;;;;10437504;28;20226;-73
2022/12/08 08:25:09;;;;;;;15.37;10.33;;;4.40;99.90;;;;;;10433219;28;20180;-73
2022/12/08 08:30:11;;;;;;;13.80;10.13;;;4.40;99.90;;;;;;10435931;28;20184;-73
2022/12/08 08:35:12;;;;;;;14.47;10.63;;;4.50;99.90;;;;;;10433126;28;20199;-72
2022/12/08 08:40:13;;;;;;;16.50;10.57;;;4.60;99.90;;;;;;10433169;28;20315;-73
2022/12/08 08:45:14;;;;;;;13.13;9.63;;;4.60;99.90;;;;;;10426584;28;20755;-73
2022/12/08 08:50:14;;;;;;;13.67;10.10;;;4.70;99.90;;;;;;10435585;28;20271;-72
2022/12/08 08:55:16;;;;;;;14.40;10.57;;;4.60;99.90;;;;;;10425085;28;20203;-74
2022/12/08 09:00:17;;;;;;;16.50;10.23;;;4.70;99.90;;;;;;10424418;28;20691;-73
2022/12/08 09:05:17;;;;;;;12.33;9.67;;;4.80;99.90;;;;;;10432907;28;20184;-73
2022/12/08 09:10:18;;;;;;;17.30;10.33;;;4.90;99.90;;;;;;10434547;28;20197;-72
2022/12/08 09:15:19;;;;;;;14.27;10.17;;;5.00;99.90;;;;;;10424293;28;20246;-74
2022/12/08 09:20:20;;;;;;;14.13;9.63;;;5.10;99.90;;;;;;10432523;28;20273;-73
2022/12/08 09:25:20;;;;;;;15.07;9.67;;;5.20;99.90;;;;;;10434516;28;20237;-73
2022/12/08 09:30:21;;;;;;;13.87;9.53;;;5.20;99.90;;;;;;10425533;28;20189;-72
2022/12/08 09:35:23;;;;;;;18.20;10.40;;;5.30;99.90;;;;;;10433138;28;20188;-72
2022/12/08 09:40:25;;;;;;;15.30;9.83;;;5.40;99.90;;;;;;10432038;28;20246;-73
2022/12/08 09:45:32;;;;;;;13.13;9.37;;;5.50;99.90;;;;;;10425059;28;20219;-72
2022/12/08 09:50:44;;;;;;;15.53;9.83;;;5.60;99.90;;;;;;10430744;28;20762;-74
2022/12/08 09:56:02;;;;;;;15.07;9.57;;;5.70;99.90;;;;;;10426164;28;20292;-72
2022/12/08 10:01:02;;;;;;;14.97;10.57;;;5.80;99.90;;;;;;10431282;28;20368;-73
2022/12/08 10:06:23;;;;;;;16.90;11.27;;;5.70;99.90;;;;;;10429382;28;20299;-73
2022/12/08 10:12:08;;;;;;;16.73;10.60;;;5.60;99.90;;;;;;10432503;28;20834;-74
2022/12/08 10:17:50;;;;;;;16.43;10.87;;;5.60;99.90;;;;;;10409971;28;20228;-73
2022/12/08 10:23:06;;;;;;;15.67;10.93;;;5.70;99.90;;;;;;10428246;28;20215;-73
2022/12/08 10:28:07;;;;;;;15.80;10.20;;;5.80;99.90;;;;;;10431710;28;20211;-73
2022/12/08 10:33:20;;;;;;;15.77;10.07;;;5.80;99.90;;;;;;10425612;28;20711;-73
2022/12/08 10:38:22;;;;;;;13.13;9.27;;;5.90;99.90;;;;;;10431326;28;20242;-72
2022/12/08 10:43:26;;;;;;;14.40;9.77;;;6.00;99.90;;;;;;10431358;28;20642;-73
2022/12/08 10:48:30;;;;;;;14.20;9.73;;;6.20;99.90;;;;;;10422986;28;20217;-72
2022/12/08 10:53:44;;;;;;;14.23;9.83;;;6.40;99.90;;;;;;10437720;28;20306;-73
2022/12/08 10:58:48;;;;;;;13.03;9.60;;;6.70;99.90;;;;;;10436575;28;20273;-73
2022/12/08 11:03:56;;;;;;;13.97;9.53;;;6.90;99.90;;;;;;10431134;28;20212;-72
2022/12/08 11:09:18;;;;;;;13.80;9.37;;;7.00;99.90;;;;;;10434340;28;20635;-72
2022/12/08 11:14:27;;;;;;;13.37;9.67;;;6.90;99.90;;;;;;10427260;28;20223;-74
2022/12/08 11:19:27;;;;;;;12.40;9.37;;;6.80;99.90;;;;;;10438720;28;20228;-72
2022/12/08 11:24:28;;;;;;;13.90;9.70;;;6.80;99.90;;;;;;10439715;28;20219;-74
2022/12/08 11:29:32;;;;;;;16.17;9.90;;;6.80;99.90;;;;;;10437158;28;20820;-73
2022/12/08 11:34:48;;;;;;;14.33;9.97;;;6.90;99.90;;;;;;10438528;28;20228;-73
2022/12/08 11:39:54;;;;;;;14.97;9.80;;;7.00;99.90;;;;;;10432398;28;20318;-73
2022/12/08 11:44:59;;;;;;;13.07;9.80;;;7.20;99.90;;;;;;10433228;28;20260;-73
2022/12/08 11:50:27;;;;;;;11.63;9.30;;;7.30;99.90;;;;;;10434385;28;20227;-74
2022/12/08 11:56:03;;;;;;;12.70;9.63;;;7.50;99.90;;;;;;10429057;28;20229;-74
2022/12/08 12:01:04;;;;;;;11.80;8.50;;;7.70;99.90;;;;;;10435569;28;20232;-74
2022/12/08 12:06:07;;;;;;;11.20;9.00;;;7.80;99.90;;;;;;10436772;28;20731;-72
2022/12/08 12:17:04;;;;;;;14.00;9.97;;;7.90;99.90;;;;;;10432116;28;20224;-73
2022/12/08 12:22:14;;;;;;;13.70;9.40;;;7.90;99.90;;;;;;10430304;28;20243;-73
2022/12/08 12:27:15;;;;;;;14.53;9.47;;;7.90;99.90;;;;;;10435600;28;20231;-72
2022/12/08 12:32:16;;;;;;;10.53;7.57;;;7.80;99.90;;;;;;10437775;28;20735;-73
2022/12/08 12:37:23;;;;;;;11.40;7.77;;;7.80;99.90;;;;;;10426467;28;20349;-73
2022/12/08 12:42:44;;;;;;;13.53;7.53;;;7.70;99.90;;;;;;10426968;28;20209;-72
2022/12/08 12:47:49;;;;;;;9.10;7.30;;;7.60;99.90;;;;;;10432044;28;20319;-74
2022/12/08 12:52:49;;;;;;;9.50;6.67;;;7.50;99.90;;;;;;10437354;28;20722;-74
2022/12/08 12:57:56;;;;;;;10.30;6.77;;;7.50;99.90;;;;;;10430281;28;20225;-73
2022/12/08 13:02:57;;;;;;;8.47;6.30;;;7.40;99.90;;;;;;10435972;28;20221;-72
2022/12/08 13:08:02;;;;;;;10.07;6.50;;;7.40;99.90;;;;;;10437369;28;20268;-72
2022/12/08 13:13:11;;;;;;;7.93;6.43;;;7.30;99.90;;;;;;10429380;28;20220;-72
2022/12/08 13:18:38;;;;;;;8.57;6.27;;;7.20;99.90;;;;;;10425764;28;20228;-72
2022/12/08 13:23:47;;;;;;;9.23;6.07;;;7.20;99.90;;;;;;10427677;28;20222;-73
2022/12/08 13:29:00;;;;;;;8.70;6.43;;;7.20;99.90;;;;;;10440290;28;20219;-72
2022/12/08 13:34:05;;;;;;;9.20;6.50;;;7.10;99.90;;;;;;10427629;28;20294;-72
2022/12/08 13:39:14;;;;;;;9.73;6.77;;;7.10;99.90;;;;;;10424981;28;20224;-71
2022/12/08 13:44:22;;;;;;;9.30;6.27;;;7.00;99.90;;;;;;10432525;28;20216;-73
2022/12/08 13:49:49;;;;;;;8.03;6.47;;;7.10;99.90;;;;;;10424189;28;20216;-74
2022/12/08 13:54:53;;;;;;;8.47;6.30;;;7.20;99.90;;;;;;10431968;28;20691;-73
2022/12/08 13:59:59;;;;;;;16.03;7.90;;;7.20;99.90;;;;;;10427957;28;20224;-73
2022/12/08 14:05:00;;;;;;;8.70;6.50;;;7.20;99.90;;;;;;10427291;28;20216;-73
2022/12/08 14:10:02;;;;;;;10.47;6.80;;;7.00;99.90;;;;;;10434724;28;20708;-74
2022/12/08 14:15:05;;;;;;;9.57;6.20;;;6.60;99.90;;;;;;10429986;28;20220;-73
2022/12/08 14:20:12;;;;;;;9.63;6.53;;;6.40;99.90;;;;;;10425692;28;20279;-73
2022/12/08 14:25:19;;;;;;;12.70;8.63;;;6.20;99.90;;;;;;10433132;28;20180;-73
2022/12/08 14:30:38;;;;;;;17.03;9.13;;;6.10;99.90;;;;;;10431808;28;20194;-73
2022/12/08 14:35:39;;;;;;;15.57;9.60;;;6.10;99.90;;;;;;10442346;28;20220;-73
2022/12/08 14:40:41;;;;;;;12.17;8.73;;;5.90;99.90;;;;;;10435816;28;20225;-73
2022/12/08 14:45:42;;;;;;;15.93;8.63;;;5.80;99.90;;;;;;10434194;28;20236;-73
2022/12/08 14:51:08;;;;;;;13.97;8.20;;;5.80;99.90;;;;;;10432212;28;20240;-74
2022/12/08 14:56:12;;;;;;;12.40;9.27;;;5.70;99.90;;;;;;10437398;28;20227;-73
2022/12/08 15:01:15;;;;;;;16.03;9.83;;;5.70;99.90;;;;;;10442734;28;20319;-73
2022/12/08 15:06:20;;;;;;;11.20;8.53;;;5.60;99.90;;;;;;10430327;28;20880;-73
2022/12/08 15:11:20;;;;;;;14.20;8.63;;;5.60;99.90;;;;;;10437588;28;20219;-73
2022/12/08 15:16:41;;;;;;;13.13;9.30;;;5.50;99.90;;;;;;10441922;28;20590;-73
2022/12/08 15:21:43;;;;;;;12.13;8.90;;;5.40;99.90;;;;;;10433768;28;20232;-71
2022/12/08 15:26:46;;;;;;;14.40;9.53;;;5.40;99.90;;;;;;10433822;28;20239;-71
2022/12/08 15:31:47;;;;;;;14.17;9.60;;;5.30;99.90;;;;;;10433389;28;20243;-73
2022/12/08 15:36:49;;;;;;;11.97;8.53;;;5.20;99.90;;;;;;10432823;28;20244;-73
2022/12/08 15:41:53;;;;;;;11.00;8.90;;;5.20;99.90;;;;;;10432342;28;20254;-72
2022/12/08 15:46:54;;;;;;;14.90;9.60;;;5.20;99.90;;;;;;10436837;28;20232;-74
2022/12/08 15:51:55;;;;;;;14.13;9.53;;;5.20;99.90;;;;;;10434520;28;20208;-72
2022/12/08 15:56:57;;;;;;;13.33;8.80;;;5.10;99.90;;;;;;10437962;28;20722;-72
2022/12/08 16:01:58;;;;;;;10.97;8.63;;;5.10;99.90;;;;;;10436384;28;20226;-74
2022/12/08 16:06:58;;;;;;;12.17;8.43;;;5.00;99.90;;;;;;10439538;28;20212;-71
2022/12/08 16:17:19;;;;;;;13.47;9.50;;;5.00;99.90;;;;;;10428454;28;20225;-70
2022/12/08 16:22:23;;;;;;;15.93;9.67;;;5.00;99.90;;;;;;10434465;28;20235;-70
2022/12/08 16:27:30;;;;;;;14.63;9.37;;;4.90;99.90;;;;;;10435124;28;20295;-72
2022/12/08 16:32:31;;;;;;;14.50;9.37;;;4.90;99.90;;;;;;10433616;28;20224;-70
2022/12/08 16:37:31;;;;;;;11.70;9.10;;;4.90;99.90;;;;;;10426384;28;20226;-76
2022/12/08 16:42:39;;;;;;;14.37;9.50;;;4.90;99.90;;;;;;10433980;28;20433;-73
2022/12/08 16:47:42;;;;;;;13.77;9.90;;;4.90;99.90;;;;;;10425721;28;20642;-72
2022/12/08 16:52:44;;;;;;;14.03;9.30;;;4.90;99.90;;;;;;10428743;28;20727;-73
2022/12/08 16:57:46;;;;;;;13.33;9.90;;;4.90;99.90;;;;;;10430298;28;20827;-73
2022/12/08 17:02:47;;;;;;;15.70;11.40;;;4.90;99.90;;;;;;10426553;28;20227;-72
2022/12/08 17:07:49;;;;;;;13.83;10.07;;;4.90;99.90;;;;;;10430927;28;20216;-72
2022/12/08 17:12:50;;;;;;;14.70;9.73;;;4.80;99.90;;;;;;10430236;28;20228;-73
2022/12/08 17:17:51;;;;;;;15.30;10.57;;;4.80;99.90;;;;;;10430352;28;20216;-75
2022/12/08 17:22:54;;;;;;;14.33;10.37;;;4.70;99.90;;;;;;10436814;28;20253;-72
2022/12/08 17:27:55;;;;;;;19.20;10.67;;;4.70;99.90;;;;;;10430018;28;20302;-73
2022/12/08 17:32:55;;;;;;;14.90;10.57;;;4.60;99.90;;;;;;10428757;28;20931;-74
2022/12/08 17:37:56;;;;;;;15.43;10.67;;;4.40;99.90;;;;;;10433611;28;20228;-74
2022/12/08 17:42:56;;;;;;;19.03;11.57;;;4.40;99.90;;;;;;10429725;28;20250;-73
2022/12/08 17:47:57;;;;;;;14.27;10.73;;;4.40;99.90;;;;;;10428293;28;20303;-72
2022/12/08 17:52:57;;;;;;;13.20;10.00;;;4.50;99.90;;;;;;10429402;28;20638;-73
2022/12/08 17:57:58;;;;;;;17.47;10.73;;;4.50;99.90;;;;;;10430129;28;20722;-74
2022/12/08 18:02:59;;;;;;;20.63;12.57;;;4.50;99.90;;;;;;10435734;28;20242;-74
2022/12/08 18:08:03;;;;;;;17.73;10.93;;;4.50;99.90;;;;;;10433868;28;20258;-73
2022/12/08 18:13:09;;;;;;;14.23;10.70;;;4.50;99.90;;;;;;10425039;28;20232;-73
2022/12/08 18:18:10;;;;;;;16.47;11.93;;;4.50;99.90;;;;;;10430892;28;20223;-74
2022/12/08 18:23:11;;;;;;;15.43;11.70;;;4.50;99.90;;;;;;10425414;28;20278;-73
2022/12/08 18:28:11;;;;;;;17.57;11.60;;;4.50;99.90;;;;;;10437885;28;20245;-71
2022/12/08 18:33:12;;;;;;;18.07;10.90;;;4.50;99.90;;;;;;10422632;28;20315;-73
2022/12/08 18:38:13;;;;;;;17.80;10.97;;;4.50;99.90;;;;;;10423309;28;20814;-74
2022/12/08 18:43:13;;;;;;;17.93;11.40;;;4.50;99.90;;;;;;10420214;28;20224;-71
2022/12/08 18:48:17;;;;;;;16.23;11.47;;;4.40;99.90;;;;;;10425527;28;20251;-71
2022/12/08 18:53:18;;;;;;;15.20;11.37;;;4.40;99.90;;;;;;10418250;28;20229;-73
2022/12/08 18:58:18;;;;;;;16.27;11.73;;;4.40;99.90;;;;;;10457569;28;20719;-71
2022/12/08 19:03:19;;;;;;;16.77;12.13;;;4.40;99.90;;;;;;10427017;28;20262;-71
2022/12/08 19:08:19;;;;;;;16.67;11.27;;;4.40;99.90;;;;;;10413389;28;20289;-71
2022/12/08 19:13:20;;;;;;;14.80;11.03;;;4.40;99.90;;;;;;10427024;28;20374;-71
2022/12/08 19:18:20;;;;;;;17.87;12.43;;;4.40;99.90;;;;;;10437896;28;20258;-71
2022/12/08 19:23:21;;;;;;;18.53;11.67;;;4.40;99.90;;;;;;10441567;28;20687;-72
2022/12/08 19:28:22;;;;;;;16.63;11.27;;;4.40;99.90;;;;;;10430052;28;20233;-71
2022/12/08 19:33:22;;;;;;;24.87;15.30;;;4.40;99.90;;;;;;10435446;28;20228;-71
2022/12/08 19:38:23;;;;;;;21.50;13.63;;;4.40;99.90;;;;;;10453577;28;20706;-71
2022/12/08 19:48:43;;;;;;;17.77;12.33;;;4.40;99.90;;;;;;10426945;28;20232;-71
2022/12/08 19:53:44;;;;;;;19.23;12.30;;;4.40;99.90;;;;;;10426993;28;20221;-71
2022/12/08 19:58:44;;;;;;;16.70;11.90;;;4.40;99.90;;;;;;10428387;28;20279;-72
2022/12/08 20:03:45;;;;;;;16.37;11.23;;;4.40;99.90;;;;;;10428831;28;20220;-71
2022/12/08 20:08:45;;;;;;;16.43;12.43;;;4.30;99.90;;;;;;10433601;28;20732;-71
2022/12/08 20:13:46;;;;;;;15.83;11.87;;;4.40;99.90;;;;;;10427758;28;20216;-71
2022/12/08 20:18:47;;;;;;;17.67;12.50;;;4.30;99.90;;;;;;10426873;28;20512;-74
2022/12/08 20:23:48;;;;;;;17.23;12.27;;;4.30;99.90;;;;;;10429856;28;20273;-74
2022/12/08 20:28:49;;;;;;;19.63;13.53;;;4.40;99.90;;;;;;10431857;28;20213;-74
2022/12/08 20:33:51;;;;;;;20.37;13.47;;;4.30;99.90;;;;;;10449465;28;20695;-73
2022/12/08 20:38:53;;;;;;;19.87;12.90;;;4.30;99.90;;;;;;10431321;28;20642;-74
2022/12/08 20:43:53;;;;;;;18.63;12.40;;;4.30;99.90;;;;;;10426037;28;20252;-74
2022/12/08 20:48:54;;;;;;;21.80;13.33;;;4.30;99.90;;;;;;10435735;28;20695;-74
2022/12/08 20:53:56;;;;;;;20.83;12.73;;;4.30;99.90;;;;;;10419896;28;20228;-74
2022/12/08 20:58:57;;;;;;;19.77;13.90;;;4.30;99.90;;;;;;10446063;28;20331;-75
2022/12/08 21:03:58;;;;;;;18.17;12.37;;;4.30;99.90;;;;;;10427991;28;20661;-73
2022/12/08 21:08:59;;;;;;;18.23;13.30;;;4.40;99.90;;;;;;10456291;28;20224;-74
2022/12/08 21:14:01;;;;;;;17.30;13.03;;;4.40;99.90;;;;;;10443649;28;20217;-71
2022/12/08 21:19:02;;;;;;;19.30;14.20;;;4.30;99.90;;;;;;10435890;28;20232;-71
2022/12/08 21:24:03;;;;;;;23.03;13.47;;;4.30;99.90;;;;;;10417585;28;20216;-71
2022/12/08 21:29:05;;;;;;;20.00;13.93;;;4.40;99.90;;;;;;10413554;28;20220;-70
2022/12/08 21:34:06;;;;;;;19.87;14.30;;;4.30;99.90;;;;;;10436553;28;20623;-71
2022/12/08 21:39:11;;;;;;;21.53;13.60;;;4.30;99.90;;;;;;10440335;28;20223;-73
2022/12/08 21:44:14;;;;;;;19.70;13.07;;;4.30;99.90;;;;;;10432249;28;20212;-73
2022/12/08 21:49:15;;;;;;;16.80;13.07;;;4.30;99.90;;;;;;10439024;28;20220;-74
2022/12/08 21:54:15;;;;;;;20.87;13.23;;;4.30;99.90;;;;;;10421255;28;20285;-75
2022/12/08 21:59:16;;;;;;;17.90;12.93;;;4.30;99.90;;;;;;10429309;28;20230;-75
2022/12/08 22:04:20;;;;;;;18.80;12.63;;;4.30;99.90;;;;;;10430919;28;20303;-70
2022/12/08 22:09:20;;;;;;;21.90;13.60;;;4.30;99.90;;;;;;10424728;28;20212;-73
2022/12/08 22:14:21;;;;;;;20.50;13.10;;;4.30;99.90;;;;;;10426217;28;20215;-73
2022/12/08 22:19:23;;;;;;;19.53;13.80;;;4.30;99.90;;;;;;10431511;28;20225;-75
2022/12/08 22:24:23;;;;;;;19.47;13.07;;;4.30;99.90;;;;;;10427831;28;20219;-74
2022/12/08 22:29:24;;;;;;;17.63;11.73;;;4.30;99.90;;;;;;10440443;28;20220;-75
2022/12/08 22:34:27;;;;;;;15.83;11.67;;;4.30;99.90;;;;;;10425219;28;20698;-74
2022/12/08 22:39:27;;;;;;;16.67;12.23;;;4.20;99.90;;;;;;10409647;28;20225;-73
2022/12/08 22:44:28;;;;;;;17.17;11.97;;;4.20;99.90;;;;;;10445839;28;20238;-75
2022/12/08 22:49:30;;;;;;;15.03;11.20;;;4.20;99.90;;;;;;10443595;28;20680;-74
2022/12/08 22:54:31;;;;;;;14.97;10.63;;;4.30;99.90;;;;;;10434787;28;20882;-75
2022/12/08 22:59:32;;;;;;;18.10;12.07;;;4.20;99.90;;;;;;10441540;28;20251;-75
2022/12/08 23:04:33;;;;;;;17.63;11.90;;;4.20;99.90;;;;;;10428924;28;20220;-74
2022/12/08 23:09:34;;;;;;;15.80;11.70;;;4.30;99.90;;;;;;10424327;28;20223;-74
2022/12/08 23:14:35;;;;;;;16.90;11.23;;;4.30;99.90;;;;;;10441038;28;20555;-74
2022/12/08 23:19:37;;;;;;;15.97;10.87;;;4.20;99.90;;;;;;10431506;28;20229;-74
2022/12/08 23:24:37;;;;;;;14.77;10.67;;;4.20;99.90;;;;;;10449883;28;20270;-75
2022/12/08 23:29:38;;;;;;;13.27;10.00;;;4.20;99.90;;;;;;10443529;28;20281;-75
2022/12/08 23:34:39;;;;;;;14.83;10.03;;;4.20;99.90;;;;;;10433658;28;20298;-75
2022/12/08 23:39:39;;;;;;;13.77;10.10;;;4.20;99.90;;;;;;10450995;28;20611;-75
2022/12/08 23:44:40;;;;;;;12.77;9.67;;;4.20;99.90;;;;;;10465218;28;20208;-73
2022/12/08 23:49:40;;;;;;;14.33;10.53;;;4.10;99.90;;;;;;10436511;28;20222;-73
2022/12/08 23:54:41;;;;;;;13.90;10.30;;;4.10;99.90;;;;;;10419749;28;20315;-72
2022/12/08 23:59:42;;;;;;;15.17;10.33;;;4.10;99.90;;;;;;10426538;28;20245;-72
